Ashton, IL (61006)

6:58 PM CST on February 24, 2017 (GMT -0600)
Flagg/Rochelle | | Change Station

Elev 787 ft 41.92 °N, 89.13 °W | Updated 12 seconds ago

Overcast
Overcast
36.3 °F
Feels Like 33 °F
N
4.0
Wind Variable Wind from NNW
Gusts 4.9 mph

Today
High -- | Low -- °F
--% Chance of Precip.
Yesterday
High -- | Low -- °F
Precip. -- in
Pressure 29.60 in
Visibility 2.5 miles
Clouds Overcast 600 ft
Windchill 33 °F
Dew Point 36 °F
Humidity 97%
Rainfall 0.04 in
Snow Depth Not available.
6:39 AM 5:41 PM
Waning Crescent, 3% visible
METAR KRPJ 250035Z AUTO 31012G15KT 2 1/2SM -DZ OVC006 00/00 A2960 RMK AO2 T00030000
Pressure 29.60 in
Visibility 2.5 miles
Clouds Overcast 600 ft
Windchill 33 °F
Dew Point 36 °F
Humidity 97%
Rainfall 0.04 in
Snow Depth Not available.
6:39 AM 5:41 PM
Waning Crescent, 3% visible
METAR KRPJ 250035Z AUTO 31012G15KT 2 1/2SM -DZ OVC006 00/00 A2960 RMK AO2 T00030000

Get Your Daily Forecast Email!

Thanks for signing up!

Be on the lookout for a verification email in your inbox.

You'll start receiving the daily forecast at 8 AM.

×

10-Day Weather Forecast

Almanac

Astronomy

Feb. 24, 2017 Rise Set
Actual Time
Civil Twilight
Nautical Twilight
Astronomical Twilight
Moon
Length of Visible Light
Length of Day
Tomorrow will be .
, % of the Moon is Illuminated

Today's Extremes

State Highs State Lows

Community

WunderPhotos

Upload Photos

1,962,540 photos uploaded!

WunderBlog® & News

Nearby

Air Quality

  Air Quality AQ Index Pollutant
Not available.

Snow Depth

Station Depth Elevation

Earthquake Activity

City Distance Mag. Time & Date
Minimum magnitude displayed is 2.5.

Coastal Water Temperatures

Place Temperature

Stations

Nearby Weather Stations

Station Location Temp. Windchill Dew Point Humidity Wind Precip. Elev Updated Type
                   

Watches & Warnings

There are currently no watches in effect.